createdAt,value
2023-09-26T00:00:21.620Z,86.79
2023-09-26T00:02:52.577Z,86.97
2023-09-26T00:05:21.542Z,87.17
2023-09-26T00:07:50.410Z,87.08
2023-09-26T00:10:19.992Z,87.11
2023-09-26T00:12:48.307Z,87.54
2023-09-26T00:15:16.599Z,87.18
2023-09-26T00:17:45.226Z,87.35
2023-09-26T00:20:18.241Z,87.01
2023-09-26T00:22:46.645Z,87.27
2023-09-26T00:25:14.547Z,87.58
2023-09-26T00:27:42.660Z,87.55
2023-09-26T00:30:11.028Z,88.21
2023-09-26T00:32:40.214Z,88.67
2023-09-26T00:35:12.437Z,88.92
2023-09-26T00:37:42.920Z,89.00
2023-09-26T00:40:17.645Z,89.59
2023-09-26T00:42:45.742Z,89.54
2023-09-26T00:45:14.133Z,90.27
2023-09-26T00:47:42.104Z,90.54
2023-09-26T00:50:11.828Z,90.91
2023-09-26T00:52:41.812Z,90.76
2023-09-26T00:55:12.741Z,90.95
2023-09-26T00:57:41.713Z,91.18
2023-09-26T01:00:14.302Z,91.40
2023-09-26T01:02:42.577Z,91.64
2023-09-26T01:05:11.269Z,91.87
2023-09-26T01:07:41.449Z,91.85
2023-09-26T01:10:09.800Z,92.01
2023-09-26T01:12:40.154Z,92.29
2023-09-26T01:15:09.490Z,92.71
2023-09-26T01:17:37.610Z,92.64
2023-09-26T01:20:13.166Z,92.74
2023-09-26T01:22:45.160Z,92.93
2023-09-26T01:25:16.583Z,92.94
2023-09-26T01:27:44.804Z,92.90
2023-09-26T01:30:14.186Z,93.11
2023-09-26T01:32:42.429Z,93.07
2023-09-26T01:35:10.894Z,93.48
2023-09-26T01:37:40.485Z,93.85
2023-09-26T01:40:12.595Z,94.14
2023-09-26T01:42:42.143Z,94.91
2023-09-26T01:45:11.704Z,94.96
2023-09-26T01:47:45.006Z,95.64
2023-09-26T01:50:13.317Z,95.68
2023-09-26T01:52:41.462Z,95.23
2023-09-26T01:55:14.498Z,95.19
2023-09-26T01:57:43.912Z,95.23
2023-09-26T02:00:13.242Z,94.71
2023-09-26T02:02:42.269Z,94.91
2023-09-26T02:05:12.948Z,94.77
2023-09-26T02:07:43.559Z,94.65
2023-09-26T02:10:12.221Z,94.56
2023-09-26T02:12:40.961Z,94.07
2023-09-26T02:15:13.395Z,93.52
2023-09-26T02:17:41.999Z,93.25
2023-09-26T02:20:14.279Z,92.97
2023-09-26T02:22:44.038Z,92.86
2023-09-26T02:25:12.942Z,93.13
2023-09-26T02:27:41.434Z,93.22
2023-09-26T02:30:11.438Z,93.34
2023-09-26T02:32:39.977Z,93.18
2023-09-26T02:35:10.419Z,92.99
2023-09-26T02:37:39.832Z,93.41
2023-09-26T02:40:11.263Z,93.70
2023-09-26T02:42:40.466Z,93.46
2023-09-26T02:45:11.054Z,93.27
2023-09-26T02:47:39.395Z,93.10
2023-09-26T02:50:08.783Z,93.30
2023-09-26T02:52:37.225Z,93.16
2023-09-26T02:55:05.868Z,93.56
2023-09-26T02:57:36.340Z,93.78
2023-09-26T03:00:17.253Z,93.32
2023-09-26T03:02:48.076Z,93.31
2023-09-26T03:05:17.328Z,92.54
2023-09-26T03:07:46.131Z,92.60
2023-09-26T03:10:16.034Z,92.63
2023-09-26T03:12:48.112Z,92.40
2023-09-26T03:15:17.021Z,92.71
2023-09-26T03:17:46.471Z,92.62
2023-09-26T03:20:17.117Z,92.61
2023-09-26T03:22:45.805Z,92.90
2023-09-26T03:25:14.004Z,93.29
2023-09-26T03:27:42.233Z,93.58
2023-09-26T03:30:11.034Z,93.66
2023-09-26T03:32:39.082Z,94.16
2023-09-26T03:35:10.474Z,94.66
2023-09-26T03:37:38.651Z,95.25
2023-09-26T03:40:07.862Z,95.39
2023-09-26T03:42:35.969Z,95.42
2023-09-26T03:45:03.966Z,95.65
2023-09-26T03:47:32.181Z,95.95
2023-09-26T03:50:00.578Z,96.29
2023-09-26T03:52:38.812Z,96.21
2023-09-26T03:55:10.206Z,96.34
2023-09-26T03:57:38.448Z,96.21
2023-09-26T04:00:17.885Z,96.48
2023-09-26T04:02:46.418Z,96.81
2023-09-26T04:05:14.602Z,97.16
2023-09-26T04:07:43.961Z,97.08
2023-09-26T04:10:12.774Z,97.25
2023-09-26T04:12:41.662Z,97.68
2023-09-26T04:15:10.649Z,97.98
2023-09-26T04:17:39.278Z,97.86
2023-09-26T04:20:27.007Z,98.16
2023-09-26T04:23:04.160Z,98.57
2023-09-26T04:25:32.918Z,98.44
2023-09-26T04:28:00.990Z,98.79
2023-09-26T04:30:29.087Z,98.87
2023-09-26T04:32:57.153Z,99.21
2023-09-26T04:35:25.200Z,99.31
2023-09-26T04:37:54.248Z,99.18
2023-09-26T04:40:23.916Z,99.03
2023-09-26T04:42:53.474Z,99.69
2023-09-26T04:45:21.657Z,99.15
2023-09-26T04:47:49.733Z,98.55
2023-09-26T04:50:18.145Z,98.28
2023-09-26T04:52:46.179Z,98.53
2023-09-26T04:55:14.371Z,98.18
2023-09-26T04:57:45.272Z,98.10
2023-09-26T05:00:18.353Z,98.10
2023-09-26T05:02:47.243Z,98.32
2023-09-26T05:05:15.383Z,98.61
2023-09-26T05:07:44.896Z,98.85
2023-09-26T05:10:13.692Z,98.21
2023-09-26T05:12:42.646Z,97.24
2023-09-26T05:15:15.281Z,96.91
2023-09-26T05:17:44.143Z,96.98
2023-09-26T05:20:14.660Z,97.24
2023-09-26T05:22:44.339Z,97.68
2023-09-26T05:25:13.050Z,97.54
2023-09-26T05:27:47.341Z,98.80
2023-09-26T05:30:17.088Z,99.12
2023-09-26T05:32:46.002Z,100.00
2023-09-26T05:35:16.150Z,100.00
2023-09-26T05:37:45.877Z,100.00
2023-09-26T05:40:14.090Z,100.00
2023-09-26T05:42:46.794Z,100.00
2023-09-26T05:45:18.287Z,100.00
2023-09-26T05:47:46.751Z,100.00
2023-09-26T05:50:15.546Z,100.00
2023-09-26T05:52:43.531Z,100.00
2023-09-26T05:55:11.733Z,100.00
2023-09-26T05:57:42.947Z,99.84
2023-09-26T06:00:14.550Z,99.31
2023-09-26T06:02:45.501Z,98.33
2023-09-26T06:05:15.941Z,96.73
2023-09-26T06:07:43.993Z,96.12
2023-09-26T06:10:16.085Z,95.56
2023-09-26T06:12:46.822Z,94.80
2023-09-26T06:15:14.832Z,94.49
2023-09-26T06:17:44.240Z,94.00
2023-09-26T06:20:14.464Z,92.92
2023-09-26T06:22:45.342Z,92.16
2023-09-26T06:25:13.452Z,90.81
2023-09-26T06:27:41.522Z,90.11
2023-09-26T06:30:12.077Z,89.99
2023-09-26T06:32:40.606Z,89.55
2023-09-26T06:35:11.345Z,88.84
2023-09-26T06:37:41.773Z,89.08
2023-09-26T06:40:13.984Z,89.01
2023-09-26T06:42:42.065Z,87.78
2023-09-26T06:45:11.289Z,87.00
2023-09-26T06:47:40.001Z,87.11
2023-09-26T06:50:14.348Z,87.17
2023-09-26T06:52:44.740Z,86.35
2023-09-26T06:55:17.251Z,85.25
2023-09-26T06:57:45.354Z,85.38
2023-09-26T07:00:18.051Z,85.41
2023-09-26T07:02:49.773Z,83.65
2023-09-26T07:05:19.409Z,83.06
2023-09-26T07:07:48.857Z,83.20
2023-09-26T07:10:17.106Z,83.02
2023-09-26T07:12:45.766Z,82.46
2023-09-26T07:15:14.424Z,82.82
2023-09-26T07:17:45.959Z,83.06
2023-09-26T07:20:15.867Z,84.17
2023-09-26T07:22:46.334Z,83.47
2023-09-26T07:25:14.543Z,82.56
2023-09-26T07:27:44.643Z,82.64
2023-09-26T07:30:14.770Z,82.80
2023-09-26T07:32:42.684Z,82.82
2023-09-26T07:35:11.233Z,81.30
2023-09-26T07:37:39.018Z,81.17
2023-09-26T07:40:10.842Z,79.72
2023-09-26T07:42:41.934Z,80.84
2023-09-26T07:45:11.109Z,79.69
2023-09-26T07:47:40.278Z,78.56
2023-09-26T07:50:09.561Z,77.66
2023-09-26T07:52:37.671Z,77.74
2023-09-26T07:55:06.772Z,78.02
2023-09-26T07:57:36.165Z,77.04
2023-09-26T08:00:12.420Z,76.80
2023-09-26T08:02:40.985Z,77.59
2023-09-26T08:05:09.958Z,78.25
2023-09-26T08:07:39.429Z,78.09
2023-09-26T08:10:08.433Z,77.28
2023-09-26T08:12:38.819Z,78.13
2023-09-26T08:15:09.213Z,76.97
2023-09-26T08:17:37.228Z,76.27
2023-09-26T08:20:06.156Z,76.62
2023-09-26T08:22:34.231Z,77.50
2023-09-26T08:25:02.676Z,77.00
2023-09-26T08:27:30.910Z,73.90
2023-09-26T08:30:01.487Z,73.61
2023-09-26T08:32:31.304Z,74.08
2023-09-26T08:34:59.516Z,73.10
2023-09-26T08:37:28.261Z,73.33
2023-09-26T08:39:56.350Z,73.73
2023-09-26T08:42:29.157Z,73.76
2023-09-26T08:44:57.634Z,72.67
2023-09-26T08:47:27.490Z,71.76
2023-09-26T08:49:56.702Z,72.15
2023-09-26T08:52:25.023Z,72.00
2023-09-26T08:54:53.110Z,71.85
2023-09-26T08:57:21.979Z,72.24
2023-09-26T08:59:51.091Z,71.49
2023-09-26T09:02:19.244Z,70.67
2023-09-26T09:04:53.349Z,70.64
2023-09-26T09:07:22.163Z,70.81
2023-09-26T09:10:06.940Z,69.60
2023-09-26T09:12:36.175Z,68.69
2023-09-26T09:15:07.581Z,68.66
2023-09-26T09:17:42.354Z,67.79
2023-09-26T09:20:14.419Z,68.44
2023-09-26T09:22:42.542Z,67.85
2023-09-26T09:25:13.378Z,68.34
2023-09-26T09:27:45.020Z,66.99
2023-09-26T09:30:16.306Z,67.38
2023-09-26T09:32:45.354Z,65.58
2023-09-26T09:35:15.542Z,65.35
2023-09-26T09:37:43.678Z,65.09
2023-09-26T09:40:12.771Z,65.11
2023-09-26T09:42:42.002Z,64.83
2023-09-26T09:45:11.214Z,63.06
2023-09-26T09:47:43.827Z,62.93
2023-09-26T09:50:13.789Z,62.79
2023-09-26T09:52:45.291Z,62.78
2023-09-26T09:55:20.355Z,62.94
2023-09-26T09:57:52.090Z,63.63
2023-09-26T10:00:25.996Z,63.11
2023-09-26T10:02:54.641Z,63.14
2023-09-26T10:05:24.264Z,62.88
2023-09-26T10:07:56.004Z,63.05
2023-09-26T10:10:25.961Z,62.24
2023-09-26T10:13:15.934Z,63.13
2023-09-26T10:16:04.174Z,62.64
2023-09-26T10:18:32.307Z,62.14
2023-09-26T10:21:02.993Z,62.09
2023-09-26T10:23:35.606Z,62.30
2023-09-26T10:26:04.437Z,62.04
2023-09-26T10:28:34.142Z,61.59
2023-09-26T10:31:02.243Z,62.20
2023-09-26T10:36:19.064Z,62.36
2023-09-26T10:39:00.112Z,61.67
2023-09-26T10:41:29.336Z,62.43
2023-09-26T10:44:00.168Z,61.71
2023-09-26T10:46:29.398Z,61.79
2023-09-26T10:48:59.352Z,62.16
2023-09-26T10:51:28.675Z,61.06
2023-09-26T10:53:59.356Z,62.24
2023-09-26T10:56:27.540Z,61.64
2023-09-26T10:58:56.488Z,61.21
2023-09-26T11:01:39.399Z,59.20
2023-09-26T11:04:08.504Z,58.96
2023-09-26T11:06:39.479Z,59.11
2023-09-26T11:09:10.135Z,58.53
2023-09-26T11:11:41.391Z,59.55
2023-09-26T11:14:09.445Z,58.76
2023-09-26T11:16:37.477Z,58.58
2023-09-26T11:19:05.684Z,58.37
2023-09-26T11:21:33.770Z,58.07
2023-09-26T11:24:01.909Z,58.01
2023-09-26T11:26:31.595Z,57.35
2023-09-26T11:29:00.186Z,57.25
2023-09-26T11:31:30.416Z,57.24
2023-09-26T11:33:59.442Z,57.63
2023-09-26T11:36:27.713Z,57.51
2023-09-26T11:38:57.913Z,57.61
2023-09-26T11:41:35.804Z,57.50
2023-09-26T11:44:14.903Z,57.49
2023-09-26T11:46:50.692Z,57.55
2023-09-26T11:49:22.488Z,57.43
2023-09-26T11:51:51.237Z,56.73
2023-09-26T11:54:19.388Z,56.61
2023-09-26T11:56:51.350Z,56.21
2023-09-26T11:59:23.175Z,56.10
2023-09-26T12:01:51.753Z,56.56
2023-09-26T12:04:25.689Z,55.53
2023-09-26T12:06:53.768Z,56.45
2023-09-26T12:09:24.520Z,56.24
2023-09-26T12:11:56.086Z,55.03
2023-09-26T12:14:25.573Z,54.49
2023-09-26T12:16:54.174Z,55.21
2023-09-26T12:19:25.600Z,55.99
2023-09-26T12:21:53.753Z,55.92
2023-09-26T12:24:24.436Z,54.58
2023-09-26T12:26:52.851Z,55.04
2023-09-26T12:29:20.984Z,54.42
2023-09-26T12:31:50.568Z,54.10
2023-09-26T12:34:18.585Z,52.81
2023-09-26T12:36:46.596Z,54.16
2023-09-26T12:39:17.167Z,52.40
2023-09-26T12:41:45.758Z,52.83
2023-09-26T12:44:14.312Z,51.08
2023-09-26T12:46:42.913Z,51.72
2023-09-26T12:49:13.226Z,51.18
2023-09-26T12:51:44.467Z,50.70
2023-09-26T12:54:15.318Z,49.87
2023-09-26T12:56:43.362Z,49.68
2023-09-26T12:59:11.729Z,49.19
2023-09-26T13:01:39.881Z,49.35
2023-09-26T13:04:08.700Z,47.34
2023-09-26T13:06:38.439Z,46.34
2023-09-26T13:09:08.234Z,45.76
2023-09-26T13:11:38.980Z,43.69
2023-09-26T13:14:07.091Z,42.66
2023-09-26T13:16:35.119Z,41.78
2023-09-26T13:19:04.822Z,41.87
2023-09-26T13:21:32.986Z,41.88
2023-09-26T13:24:07.353Z,41.95
2023-09-26T13:26:35.612Z,40.34
2023-09-26T13:29:07.575Z,40.10
2023-09-26T13:31:38.236Z,39.25
2023-09-26T13:34:06.491Z,39.03
2023-09-26T13:36:34.900Z,39.85
2023-09-26T13:39:14.492Z,40.39
2023-09-26T13:41:56.291Z,40.51
2023-09-26T13:45:12.129Z,41.03
2023-09-26T13:47:46.720Z,40.59
2023-09-26T13:50:14.859Z,41.13
2023-09-26T13:52:49.077Z,41.52
2023-09-26T13:55:18.668Z,41.76
2023-09-26T13:57:46.697Z,43.23
2023-09-26T14:00:22.957Z,44.35
2023-09-26T14:02:53.631Z,45.73
2023-09-26T14:05:25.975Z,46.19
2023-09-26T14:07:54.606Z,47.59
2023-09-26T14:10:25.402Z,48.73
2023-09-26T14:12:53.832Z,47.59
2023-09-26T14:15:33.151Z,44.79
2023-09-26T14:18:04.698Z,41.45
2023-09-26T14:20:34.425Z,40.54
2023-09-26T14:23:06.615Z,38.64
2023-09-26T14:25:36.101Z,37.53
2023-09-26T14:28:06.513Z,36.82
2023-09-26T14:30:37.346Z,39.10
2023-09-26T14:33:05.984Z,38.77
2023-09-26T14:35:34.231Z,39.28
2023-09-26T14:38:02.786Z,38.15
2023-09-26T14:40:34.350Z,37.14
2023-09-26T14:43:05.138Z,36.83
2023-09-26T14:45:39.629Z,37.69
2023-09-26T14:48:16.261Z,36.29
2023-09-26T14:50:44.326Z,36.02
2023-09-26T14:53:12.131Z,35.91
2023-09-26T14:55:42.938Z,36.49
2023-09-26T14:58:12.584Z,37.42
2023-09-26T15:00:44.222Z,37.28
2023-09-26T15:03:14.165Z,37.06
2023-09-26T15:05:55.173Z,37.51
2023-09-26T15:08:23.518Z,38.64
2023-09-26T15:11:10.822Z,38.26
2023-09-26T15:13:43.258Z,39.67
2023-09-26T15:16:11.429Z,41.47
2023-09-26T15:18:41.092Z,42.66
2023-09-26T15:21:12.172Z,42.44
2023-09-26T15:23:40.219Z,43.27
2023-09-26T15:26:10.634Z,43.45
2023-09-26T15:28:41.246Z,43.73
2023-09-26T15:31:27.065Z,44.81
2023-09-26T15:33:55.117Z,44.78
2023-09-26T15:36:23.214Z,45.29
2023-09-26T15:38:51.042Z,46.67
2023-09-26T15:41:20.608Z,47.75
2023-09-26T15:43:51.510Z,48.94
2023-09-26T15:46:21.912Z,50.68
2023-09-26T15:48:50.338Z,52.38
2023-09-26T15:51:19.197Z,53.32
2023-09-26T15:53:56.516Z,54.72
2023-09-26T15:56:27.421Z,55.81
2023-09-26T15:58:55.728Z,56.48
2023-09-26T16:01:25.598Z,57.88
2023-09-26T16:03:53.751Z,58.93
2023-09-26T16:06:21.720Z,59.57
2023-09-26T16:08:52.795Z,59.90
2023-09-26T16:11:20.834Z,60.53
2023-09-26T16:13:49.081Z,60.27
2023-09-26T16:16:17.203Z,61.85
2023-09-26T16:18:46.884Z,62.21
2023-09-26T16:21:17.508Z,62.48
2023-09-26T16:23:45.519Z,63.55
2023-09-26T16:26:13.745Z,64.32
2023-09-26T16:28:41.922Z,64.47
2023-09-26T16:31:10.025Z,65.64
2023-09-26T16:33:40.265Z,66.44
2023-09-26T16:36:23.389Z,67.59
2023-09-26T16:38:53.643Z,68.80
2023-09-26T16:41:22.010Z,70.70
2023-09-26T16:43:50.054Z,71.11
2023-09-26T16:46:20.159Z,71.69
2023-09-26T16:48:48.305Z,72.06
2023-09-26T16:51:16.457Z,72.32
2023-09-26T16:53:53.921Z,72.73
2023-09-26T16:56:22.289Z,73.67
2023-09-26T16:58:51.638Z,74.43
2023-09-26T17:01:21.899Z,74.42
2023-09-26T17:03:50.612Z,75.24
2023-09-26T17:06:19.020Z,75.37
2023-09-26T17:08:53.133Z,75.39
2023-09-26T17:11:22.051Z,76.40
2023-09-26T17:13:50.175Z,75.93
2023-09-26T17:16:18.499Z,76.44
2023-09-26T17:18:46.739Z,76.93
2023-09-26T17:21:14.870Z,77.49
2023-09-26T17:23:43.133Z,78.29
2023-09-26T17:26:12.768Z,77.76
2023-09-26T17:28:43.457Z,78.13
2023-09-26T17:31:12.787Z,79.30
2023-09-26T17:33:41.002Z,79.11
2023-09-26T17:36:09.255Z,78.42
2023-09-26T17:38:43.649Z,78.75
2023-09-26T17:41:13.281Z,79.22
2023-09-26T17:43:41.348Z,79.04
2023-09-26T17:46:09.501Z,79.44
2023-09-26T17:48:37.693Z,79.34
2023-09-26T17:51:10.769Z,79.49
2023-09-26T17:53:39.409Z,79.89
2023-09-26T17:56:08.063Z,80.59
2023-09-26T17:58:37.698Z,80.92
2023-09-26T18:01:08.208Z,81.27
2023-09-26T18:03:37.045Z,81.61
2023-09-26T18:06:08.068Z,82.22
2023-09-26T18:08:36.178Z,81.87
2023-09-26T18:11:05.498Z,81.52
2023-09-26T18:13:33.638Z,81.49
2023-09-26T18:16:07.390Z,81.70
2023-09-26T18:18:38.349Z,81.89
2023-09-26T18:21:07.611Z,82.08
2023-09-26T18:23:35.714Z,81.82
2023-09-26T18:26:07.137Z,82.07
2023-09-26T18:28:35.649Z,82.37
2023-09-26T18:31:06.224Z,82.34
2023-09-26T18:33:36.995Z,82.55
2023-09-26T18:36:09.440Z,82.72
2023-09-26T18:38:39.115Z,83.04
2023-09-26T18:41:07.362Z,83.01
2023-09-26T18:43:35.508Z,83.42
2023-09-26T18:46:04.966Z,82.83
2023-09-26T18:48:33.045Z,82.93
2023-09-26T18:51:04.972Z,82.77
2023-09-26T18:53:33.043Z,82.74
2023-09-26T18:56:01.119Z,83.20
2023-09-26T18:58:29.229Z,83.02
2023-09-26T19:00:57.354Z,82.76
2023-09-26T19:03:28.549Z,83.29
2023-09-26T19:05:58.385Z,83.24
2023-09-26T19:08:33.859Z,83.12
2023-09-26T19:11:02.052Z,82.80
2023-09-26T19:13:30.189Z,82.99
2023-09-26T19:15:58.223Z,83.20
2023-09-26T19:18:30.072Z,83.04
2023-09-26T19:20:58.351Z,83.49
2023-09-26T19:23:26.559Z,83.44
2023-09-26T19:25:54.608Z,84.04
2023-09-26T19:28:22.786Z,84.42
2023-09-26T19:30:50.966Z,83.74
2023-09-26T19:33:19.225Z,83.96
2023-09-26T19:35:48.755Z,84.09
2023-09-26T19:38:16.917Z,84.40
2023-09-26T19:40:45.073Z,84.56
2023-09-26T19:43:13.562Z,84.27
2023-09-26T19:45:41.435Z,84.83
2023-09-26T19:48:09.947Z,85.19
2023-09-26T19:50:37.791Z,85.85
2023-09-26T19:53:07.379Z,85.10
2023-09-26T19:55:35.542Z,85.42
2023-09-26T19:58:04.113Z,85.46
2023-09-26T20:00:33.415Z,84.75
2023-09-26T20:03:01.965Z,85.33
2023-09-26T20:05:30.076Z,84.99
2023-09-26T20:08:02.394Z,85.09
2023-09-26T20:10:35.869Z,85.70
2023-09-26T20:13:03.994Z,86.26
2023-09-26T20:15:32.019Z,86.56
2023-09-26T20:18:03.347Z,86.60
2023-09-26T20:20:31.381Z,86.39
2023-09-26T20:22:59.395Z,86.90
2023-09-26T20:25:28.597Z,87.10
2023-09-26T20:27:57.983Z,86.87
2023-09-26T20:30:26.061Z,86.90
2023-09-26T20:32:54.057Z,86.51
2023-09-26T20:35:22.306Z,86.28
2023-09-26T20:37:50.435Z,86.72
2023-09-26T20:40:18.597Z,86.47
2023-09-26T20:42:46.562Z,86.72
2023-09-26T20:45:16.300Z,87.56
2023-09-26T20:47:45.329Z,88.92
2023-09-26T20:50:14.032Z,88.82
2023-09-26T20:52:42.300Z,88.74
2023-09-26T20:55:10.706Z,88.88
2023-09-26T20:57:38.792Z,88.32
2023-09-26T21:00:10.780Z,88.44
2023-09-26T21:02:40.349Z,87.82
2023-09-26T21:05:09.035Z,88.16
2023-09-26T21:07:38.890Z,88.23
2023-09-26T21:10:07.987Z,87.55
2023-09-26T21:12:36.030Z,88.32
2023-09-26T21:15:04.195Z,87.09
2023-09-26T21:17:32.235Z,87.54
2023-09-26T21:20:01.753Z,87.50
2023-09-26T21:22:29.856Z,86.71
2023-09-26T21:24:57.941Z,86.57
2023-09-26T21:27:25.960Z,86.99
2023-09-26T21:29:53.964Z,87.40
2023-09-26T21:32:22.203Z,88.28
2023-09-26T21:34:50.211Z,88.12
2023-09-26T21:37:19.691Z,88.62
2023-09-26T21:39:47.696Z,88.90
2023-09-26T21:42:15.722Z,88.69
2023-09-26T21:44:43.736Z,87.94
2023-09-26T21:47:11.793Z,88.08
2023-09-26T21:49:39.874Z,88.05
2023-09-26T21:52:07.940Z,88.35
2023-09-26T21:54:37.390Z,88.18
2023-09-26T21:57:05.463Z,89.00
2023-09-26T21:59:33.535Z,89.28
2023-09-26T22:02:01.654Z,88.82
2023-09-26T22:04:29.748Z,90.50
2023-09-26T22:06:57.857Z,89.84
2023-09-26T22:09:25.856Z,89.64
2023-09-26T22:11:55.357Z,91.04
2023-09-26T22:14:23.356Z,90.46
2023-09-26T22:16:51.514Z,90.46
2023-09-26T22:19:19.599Z,90.16
2023-09-26T22:21:48.175Z,89.83
2023-09-26T22:24:17.135Z,90.29
2023-09-26T22:26:45.231Z,90.94
2023-09-26T22:29:14.672Z,89.97
2023-09-26T22:31:42.809Z,89.26
2023-09-26T22:34:10.932Z,89.28
2023-09-26T22:36:39.290Z,89.99
2023-09-26T22:39:08.433Z,90.29
2023-09-26T22:41:36.588Z,90.60
2023-09-26T22:44:05.015Z,91.36
2023-09-26T22:46:34.717Z,91.31
2023-09-26T22:49:02.741Z,92.12
2023-09-26T22:51:30.814Z,91.94
2023-09-26T22:53:59.150Z,93.05
2023-09-26T22:56:27.311Z,93.48
2023-09-26T22:58:56.303Z,95.12
2023-09-26T23:01:24.600Z,97.09
2023-09-26T23:03:54.256Z,97.54
2023-09-26T23:06:24.338Z,97.31
2023-09-26T23:08:52.683Z,96.96
2023-09-26T23:11:21.006Z,96.40
2023-09-26T23:13:49.078Z,98.06
2023-09-26T23:16:17.832Z,98.40
2023-09-26T23:18:48.920Z,97.33
2023-09-26T23:21:18.921Z,97.25
2023-09-26T23:23:47.508Z,96.69
2023-09-26T23:26:15.346Z,96.50
2023-09-26T23:28:43.541Z,95.15
2023-09-26T23:31:12.462Z,95.10
2023-09-26T23:33:40.992Z,95.00
2023-09-26T23:36:13.637Z,94.46
2023-09-26T23:38:43.676Z,94.02
2023-09-26T23:41:12.243Z,94.28
2023-09-26T23:43:40.134Z,94.86
2023-09-26T23:46:08.306Z,94.07
2023-09-26T23:48:36.355Z,94.19
2023-09-26T23:51:08.122Z,94.62
2023-09-26T23:53:36.196Z,94.10
2023-09-26T23:56:06.087Z,94.26
2023-09-26T23:58:34.159Z,94.23
